createdAt,value
2016-10-14T00:00:33.043Z,7.89
2016-10-14T00:01:33.066Z,7.93
2016-10-14T00:02:33.029Z,7.92
2016-10-14T00:03:33.004Z,7.98
2016-10-14T00:04:33.044Z,7.92
2016-10-14T00:05:32.955Z,7.95
2016-10-14T00:06:32.936Z,8.03
2016-10-14T00:07:33.086Z,8.01
2016-10-14T00:08:33.284Z,7.93
2016-10-14T00:09:33.022Z,7.99
2016-10-14T00:10:33.069Z,8.01
2016-10-14T00:11:32.947Z,8.16
2016-10-14T00:12:33.102Z,8.11
2016-10-14T00:13:33.131Z,8.11
2016-10-14T00:14:33.003Z,8.21
2016-10-14T00:15:33.109Z,8.19
2016-10-14T00:16:33.078Z,8.06
2016-10-14T00:17:33.050Z,8.09
2016-10-14T00:18:32.996Z,8.19
2016-10-14T00:19:32.993Z,8.17
2016-10-14T00:20:33.153Z,8.07
2016-10-14T00:21:33.131Z,8.07
2016-10-14T00:22:33.365Z,8.03
2016-10-14T00:23:33.118Z,8.1
2016-10-14T00:24:33.178Z,8.13
2016-10-14T00:25:33.064Z,8.19
2016-10-14T00:26:33.073Z,8.17
2016-10-14T00:27:33.096Z,8.09
2016-10-14T00:28:33.147Z,8.14
2016-10-14T00:29:33.008Z,8.11
2016-10-14T00:30:33.107Z,8.16
2016-10-14T00:31:33.169Z,8.07
2016-10-14T00:32:33.118Z,8.11
2016-10-14T00:33:33.040Z,8.04
2016-10-14T00:34:33.073Z,8.11
2016-10-14T00:35:33.164Z,8.1
2016-10-14T00:36:33.163Z,8.14
2016-10-14T00:37:33.156Z,8.17
2016-10-14T00:38:33.048Z,8.07
2016-10-14T00:39:33.132Z,8.16
2016-10-14T00:40:33.270Z,8.19
2016-10-14T00:41:33.116Z,7.99
2016-10-14T00:42:33.149Z,8.21
2016-10-14T00:43:33.200Z,8.1
2016-10-14T00:44:33.117Z,8.14
2016-10-14T00:45:33.169Z,8.07
2016-10-14T00:46:33.127Z,8.09
2016-10-14T00:47:33.124Z,8.1
2016-10-14T00:48:33.127Z,8.06
2016-10-14T00:49:33.162Z,8.03
2016-10-14T00:50:33.155Z,8.09
2016-10-14T00:51:33.153Z,8.01
2016-10-14T00:52:33.186Z,8.06
2016-10-14T00:53:33.205Z,8.09
2016-10-14T00:54:33.146Z,8.03
2016-10-14T00:55:33.091Z,8.07
2016-10-14T00:56:33.288Z,7.93
2016-10-14T00:57:33.234Z,7.99
2016-10-14T00:58:33.219Z,7.96
2016-10-14T00:59:33.115Z,7.92
2016-10-14T01:00:33.155Z,7.95
2016-10-14T01:01:33.151Z,7.96
2016-10-14T01:02:33.249Z,8.03
2016-10-14T01:03:33.250Z,8.01
2016-10-14T01:04:33.142Z,7.91
2016-10-14T01:05:33.276Z,7.92
2016-10-14T01:06:33.170Z,8.03
2016-10-14T01:07:33.231Z,7.92
2016-10-14T01:08:33.147Z,8.06
2016-10-14T01:09:33.225Z,7.96
2016-10-14T01:10:33.184Z,7.98
2016-10-14T01:11:33.186Z,7.89
2016-10-14T01:12:33.334Z,7.91
2016-10-14T01:13:33.291Z,7.93
2016-10-14T01:14:33.190Z,8.04
2016-10-14T01:15:33.257Z,7.93
2016-10-14T01:16:33.205Z,7.92
2016-10-14T01:17:33.298Z,7.92
2016-10-14T01:18:33.253Z,7.88
2016-10-14T01:19:33.397Z,7.88
2016-10-14T01:20:33.209Z,7.86
2016-10-14T01:21:33.213Z,7.96
2016-10-14T01:22:33.204Z,7.96
2016-10-14T01:23:33.235Z,7.86
2016-10-14T01:24:33.224Z,7.86
2016-10-14T01:25:33.299Z,7.86
2016-10-14T01:26:33.261Z,7.88
2016-10-14T01:27:33.201Z,7.96
2016-10-14T01:28:33.370Z,7.91
2016-10-14T01:29:33.239Z,7.86
2016-10-14T01:30:33.276Z,7.93
2016-10-14T01:31:33.278Z,7.89
2016-10-14T01:32:33.244Z,7.92
2016-10-14T01:33:33.343Z,7.82
2016-10-14T01:34:33.363Z,7.82
2016-10-14T01:35:33.192Z,7.83
2016-10-14T01:36:33.185Z,7.8
2016-10-14T01:37:33.221Z,7.8
2016-10-14T01:38:33.347Z,7.78
2016-10-14T01:39:33.310Z,7.78
2016-10-14T01:40:33.339Z,7.78
2016-10-14T01:41:33.314Z,7.78
2016-10-14T01:42:33.311Z,7.77
2016-10-14T01:43:33.368Z,7.8
2016-10-14T01:44:33.480Z,7.68
2016-10-14T01:45:33.322Z,7.67
2016-10-14T01:46:33.279Z,7.75
2016-10-14T01:47:33.231Z,7.63
2016-10-14T01:48:33.376Z,7.71
2016-10-14T01:49:33.389Z,7.64
2016-10-14T01:50:33.310Z,7.71
2016-10-14T01:51:33.367Z,7.51
2016-10-14T01:52:33.305Z,7.71
2016-10-14T01:53:33.350Z,7.63
2016-10-14T01:54:33.349Z,7.55
2016-10-14T01:55:33.354Z,7.52
2016-10-14T01:56:33.384Z,7.48
2016-10-14T01:57:33.269Z,7.59
2016-10-14T01:58:33.353Z,7.52
2016-10-14T01:59:33.391Z,7.44
2016-10-14T02:00:33.546Z,7.56
2016-10-14T02:01:33.371Z,7.52
2016-10-14T02:02:33.293Z,7.37
2016-10-14T02:03:33.364Z,7.45
2016-10-14T02:04:33.337Z,7.45
2016-10-14T02:05:33.325Z,7.49
2016-10-14T02:06:33.374Z,7.51
2016-10-14T02:07:33.336Z,7.34
2016-10-14T02:08:33.343Z,7.23
2016-10-14T02:09:33.437Z,7.21
2016-10-14T02:10:33.319Z,7.29
2016-10-14T02:11:33.426Z,7.21
2016-10-14T02:12:33.400Z,7.15
2016-10-14T02:13:33.390Z,7.22
2016-10-14T02:14:33.443Z,7.27
2016-10-14T02:15:33.413Z,7.3
2016-10-14T02:16:33.530Z,7.27
2016-10-14T02:17:33.458Z,7.31
2016-10-14T02:18:33.375Z,7.27
2016-10-14T02:19:33.399Z,7.3
2016-10-14T02:20:33.447Z,7.26
2016-10-14T02:21:33.476Z,7.29
2016-10-14T02:22:33.416Z,7.26
2016-10-14T02:23:33.479Z,7.27
2016-10-14T02:24:33.418Z,7.18
2016-10-14T02:25:33.444Z,7.22
2016-10-14T02:26:33.310Z,7.27
2016-10-14T02:27:33.432Z,7.19
2016-10-14T02:28:33.469Z,7.15
2016-10-14T02:29:33.399Z,7.15
2016-10-14T02:30:33.437Z,7.11
2016-10-14T02:31:33.445Z,7.13
2016-10-14T02:32:33.488Z,7.04
2016-10-14T02:33:33.488Z,7.08
2016-10-14T02:34:33.453Z,7.05
2016-10-14T02:35:33.427Z,6.97
2016-10-14T02:36:33.500Z,7.09
2016-10-14T02:37:33.467Z,7.11
2016-10-14T02:38:33.424Z,7.13
2016-10-14T02:39:33.513Z,7.01
2016-10-14T02:40:33.502Z,7.03
2016-10-14T02:41:33.510Z,7.01
2016-10-14T02:42:33.428Z,7.05
2016-10-14T02:43:33.489Z,7.08
2016-10-14T02:44:33.444Z,7.04
2016-10-14T02:45:33.492Z,7
2016-10-14T02:46:33.470Z,6.93
2016-10-14T02:47:33.533Z,6.97
2016-10-14T02:48:33.616Z,7
2016-10-14T02:49:33.379Z,6.9
2016-10-14T02:50:33.483Z,6.78
2016-10-14T02:51:33.478Z,6.91
2016-10-14T02:52:33.522Z,6.79
2016-10-14T02:53:33.563Z,6.97
2016-10-14T02:54:33.520Z,6.79
2016-10-14T02:55:33.500Z,6.88
2016-10-14T02:56:33.477Z,6.8
2016-10-14T02:57:33.554Z,6.86
2016-10-14T02:58:33.507Z,6.73
2016-10-14T02:59:33.559Z,6.72
2016-10-14T03:00:33.503Z,6.8
2016-10-14T03:01:33.570Z,6.73
2016-10-14T03:02:33.546Z,6.76
2016-10-14T03:03:33.457Z,6.79
2016-10-14T03:04:33.844Z,6.75
2016-10-14T03:05:33.478Z,6.76
2016-10-14T03:06:33.541Z,6.65
2016-10-14T03:07:33.506Z,6.64
2016-10-14T03:08:33.534Z,6.72
2016-10-14T03:09:33.560Z,6.7
2016-10-14T03:10:33.568Z,6.58
2016-10-14T03:11:33.603Z,6.6
2016-10-14T03:12:33.523Z,6.64
2016-10-14T03:13:33.560Z,6.58
2016-10-14T03:14:33.489Z,6.61
2016-10-14T03:15:33.483Z,6.54
2016-10-14T03:16:33.624Z,6.51
2016-10-14T03:17:33.493Z,6.55
2016-10-14T03:18:33.537Z,6.4
2016-10-14T03:19:33.606Z,6.51
2016-10-14T03:20:33.687Z,6.44
2016-10-14T03:21:33.481Z,6.4
2016-10-14T03:22:33.554Z,6.49
2016-10-14T03:23:33.617Z,6.4
2016-10-14T03:24:33.494Z,6.39
2016-10-14T03:25:33.647Z,6.44
2016-10-14T03:26:33.605Z,6.42
2016-10-14T03:27:33.636Z,6.36
2016-10-14T03:28:33.644Z,6.39
2016-10-14T03:29:33.661Z,6.34
2016-10-14T03:30:33.520Z,6.4
2016-10-14T03:31:33.616Z,6.36
2016-10-14T03:32:33.572Z,6.44
2016-10-14T03:33:33.656Z,6.4
2016-10-14T03:34:33.622Z,6.39
2016-10-14T03:35:33.621Z,6.37
2016-10-14T03:36:33.784Z,6.46
2016-10-14T03:37:33.626Z,6.43
2016-10-14T03:38:33.517Z,6.42
2016-10-14T03:39:33.602Z,6.54
2016-10-14T03:40:33.554Z,6.46
2016-10-14T03:41:33.558Z,6.43
2016-10-14T03:42:33.562Z,6.37
2016-10-14T03:43:33.665Z,6.39
2016-10-14T03:44:33.697Z,6.43
2016-10-14T03:45:33.631Z,6.49
2016-10-14T03:46:33.604Z,6.54
2016-10-14T03:47:33.596Z,6.39
2016-10-14T03:48:33.547Z,6.4
2016-10-14T03:49:33.609Z,6.39
2016-10-14T03:50:33.555Z,6.37
2016-10-14T03:51:33.619Z,6.49
2016-10-14T03:52:33.815Z,6.49
2016-10-14T03:53:33.596Z,6.43
2016-10-14T03:54:33.703Z,6.51
2016-10-14T03:55:33.728Z,6.47
2016-10-14T03:56:33.639Z,6.54
2016-10-14T03:57:33.687Z,6.52
2016-10-14T03:58:33.619Z,6.46
2016-10-14T03:59:33.648Z,6.49
2016-10-14T04:00:33.730Z,6.51
2016-10-14T04:01:33.618Z,6.49
2016-10-14T04:02:33.652Z,6.55
2016-10-14T04:03:33.649Z,6.55
2016-10-14T04:04:33.711Z,6.46
2016-10-14T04:05:33.654Z,6.43
2016-10-14T04:06:33.738Z,6.49
2016-10-14T04:07:33.612Z,6.43
2016-10-14T04:08:33.755Z,6.4
2016-10-14T04:09:33.773Z,6.36
2016-10-14T04:10:33.755Z,6.4
2016-10-14T04:11:33.758Z,6.42
2016-10-14T04:12:33.768Z,6.52
2016-10-14T04:13:33.691Z,6.52
2016-10-14T04:14:33.630Z,6.52
2016-10-14T04:15:33.656Z,6.4
2016-10-14T04:16:33.734Z,6.55
2016-10-14T04:17:33.736Z,6.57
2016-10-14T04:18:33.778Z,6.57
2016-10-14T04:19:33.778Z,6.52
2016-10-14T04:20:33.771Z,6.57
2016-10-14T04:21:33.778Z,6.52
2016-10-14T04:22:33.771Z,6.49
2016-10-14T04:23:33.656Z,6.55
2016-10-14T04:24:33.989Z,6.54
2016-10-14T04:25:33.791Z,6.58
2016-10-14T04:26:33.677Z,6.62
2016-10-14T04:27:33.746Z,6.62
2016-10-14T04:28:33.810Z,6.58
2016-10-14T04:29:33.779Z,6.57
2016-10-14T04:30:33.735Z,6.61
2016-10-14T04:31:33.765Z,6.61
2016-10-14T04:32:33.738Z,6.65
2016-10-14T04:33:33.735Z,6.65
2016-10-14T04:34:33.740Z,6.75
2016-10-14T04:35:33.744Z,6.55
2016-10-14T04:36:33.736Z,6.6
2016-10-14T04:37:33.791Z,6.58
2016-10-14T04:38:33.758Z,6.57
2016-10-14T04:39:33.715Z,6.62
2016-10-14T04:40:33.948Z,6.67
2016-10-14T04:41:33.769Z,6.68
2016-10-14T04:42:33.810Z,6.61
2016-10-14T04:43:33.837Z,6.68
2016-10-14T04:44:33.863Z,6.62
2016-10-14T04:45:33.792Z,6.61
2016-10-14T04:46:33.771Z,6.62
2016-10-14T04:47:33.804Z,6.51
2016-10-14T04:48:33.845Z,6.58
2016-10-14T04:49:33.791Z,6.64
2016-10-14T04:50:33.860Z,6.62
2016-10-14T04:51:33.854Z,6.64
2016-10-14T04:52:33.873Z,6.61
2016-10-14T04:53:33.865Z,6.64
2016-10-14T04:54:33.760Z,6.67
2016-10-14T04:55:33.804Z,6.61
2016-10-14T04:56:33.977Z,6.55
2016-10-14T04:57:33.897Z,6.55
2016-10-14T04:58:33.898Z,6.65
2016-10-14T04:59:33.881Z,6.58
2016-10-14T05:00:33.838Z,6.65
2016-10-14T05:01:33.748Z,6.57
2016-10-14T05:02:33.766Z,6.67
2016-10-14T05:03:33.783Z,6.62
2016-10-14T05:04:33.859Z,6.65
2016-10-14T05:05:33.825Z,6.64
2016-10-14T05:06:33.850Z,6.72
2016-10-14T05:07:33.846Z,6.75
2016-10-14T05:08:33.881Z,6.75
2016-10-14T05:09:33.849Z,6.76
2016-10-14T05:10:33.882Z,6.76
2016-10-14T05:11:33.891Z,6.85
2016-10-14T05:12:34.065Z,6.82
2016-10-14T05:13:33.832Z,6.91
2016-10-14T05:14:33.847Z,6.8
2016-10-14T05:15:33.783Z,6.94
2016-10-14T05:16:33.858Z,6.88
2016-10-14T05:17:33.881Z,6.95
2016-10-14T05:18:33.868Z,6.91
2016-10-14T05:19:33.870Z,6.9
2016-10-14T05:20:33.866Z,6.9
2016-10-14T05:21:33.891Z,6.97
2016-10-14T05:22:33.883Z,6.94
2016-10-14T05:23:33.905Z,6.95
2016-10-14T05:24:33.890Z,7.03
2016-10-14T05:25:33.811Z,7.03
2016-10-14T05:26:33.813Z,6.94
2016-10-14T05:27:33.881Z,7.01
2016-10-14T05:28:34.131Z,7.12
2016-10-14T05:29:33.851Z,7.09
2016-10-14T05:30:33.974Z,7.13
2016-10-14T05:31:33.917Z,7.18
2016-10-14T05:32:33.917Z,7.08
2016-10-14T05:33:33.977Z,7.09
2016-10-14T05:34:33.995Z,7.11
2016-10-14T05:35:33.985Z,7.15
2016-10-14T05:36:34.106Z,7.12
2016-10-14T05:37:33.944Z,7.08
2016-10-14T05:38:33.962Z,7.09
2016-10-14T05:39:33.926Z,7.13
2016-10-14T05:40:33.934Z,7.22
2016-10-14T05:41:33.922Z,7.15
2016-10-14T05:42:34.010Z,7.18
2016-10-14T05:43:33.930Z,7.18
2016-10-14T05:44:34.027Z,7.13
2016-10-14T05:45:33.975Z,7.16
2016-10-14T05:46:33.987Z,7.18
2016-10-14T05:47:33.965Z,7.09
2016-10-14T05:48:34.031Z,7.21
2016-10-14T05:49:34.048Z,7.18
2016-10-14T05:50:33.946Z,7.21
2016-10-14T05:51:33.881Z,7.31
2016-10-14T05:52:34.044Z,7.33
2016-10-14T05:53:33.972Z,7.41
2016-10-14T05:54:33.931Z,7.31
2016-10-14T05:55:33.938Z,7.4
2016-10-14T05:56:33.919Z,7.41
2016-10-14T05:57:33.971Z,7.45
2016-10-14T05:58:34.005Z,7.21
2016-10-14T05:59:33.974Z,7.27
2016-10-14T06:00:34.137Z,7.21
2016-10-14T06:01:34.010Z,7.33
2016-10-14T06:02:33.935Z,7.37
2016-10-14T06:03:33.998Z,7.27
2016-10-14T06:04:34.017Z,7.27
2016-10-14T06:05:34.013Z,7.26
2016-10-14T06:06:33.982Z,7.4
2016-10-14T06:07:34.069Z,7.29
2016-10-14T06:08:34.036Z,7.34
2016-10-14T06:09:33.943Z,7.27
2016-10-14T06:10:34.033Z,7.41
2016-10-14T06:11:34.052Z,7.33
2016-10-14T06:12:33.940Z,7.22
2016-10-14T06:13:34.048Z,7.21
2016-10-14T06:14:34.057Z,7.23
2016-10-14T06:15:34.051Z,7.22
2016-10-14T06:16:34.232Z,7.36
2016-10-14T06:17:34.034Z,7.36
2016-10-14T06:18:34.060Z,7.3
2016-10-14T06:19:34.109Z,7.23
2016-10-14T06:20:34.076Z,7.4
2016-10-14T06:21:34.060Z,7.39
2016-10-14T06:22:34.123Z,7.34
2016-10-14T06:23:34.056Z,7.44
2016-10-14T06:24:34.042Z,7.45
2016-10-14T06:25:34.113Z,7.41
2016-10-14T06:26:34.136Z,7.52
2016-10-14T06:27:34.057Z,7.48
2016-10-14T06:28:34.094Z,7.49
2016-10-14T06:29:34.128Z,7.45
2016-10-14T06:30:34.003Z,7.47
2016-10-14T06:31:34.165Z,7.52
2016-10-14T06:32:34.161Z,7.49
2016-10-14T06:33:34.132Z,7.49
2016-10-14T06:34:34.082Z,7.54
2016-10-14T06:35:34.168Z,7.51
2016-10-14T06:36:34.062Z,7.49
2016-10-14T06:37:34.176Z,7.48
2016-10-14T06:38:34.062Z,7.48
2016-10-14T06:39:34.046Z,7.58
2016-10-14T06:40:34.152Z,7.52
2016-10-14T06:41:34.162Z,7.61
2016-10-14T06:42:34.122Z,7.67
2016-10-14T06:43:34.291Z,7.61
2016-10-14T06:44:34.104Z,7.61
2016-10-14T06:45:34.100Z,7.68
2016-10-14T06:46:34.160Z,7.73
2016-10-14T06:47:34.131Z,7.73
2016-10-14T06:48:34.298Z,7.74
2016-10-14T06:49:34.036Z,7.77
2016-10-14T06:50:34.260Z,7.75
2016-10-14T06:51:34.207Z,7.74
2016-10-14T06:52:34.132Z,7.83
2016-10-14T06:53:34.061Z,7.86
2016-10-14T06:54:34.167Z,7.8
2016-10-14T06:55:34.393Z,7.85
2016-10-14T06:56:34.150Z,7.8
2016-10-14T06:57:34.090Z,7.82
2016-10-14T06:58:34.138Z,7.86
2016-10-14T06:59:34.106Z,7.86
2016-10-14T07:00:34.159Z,7.88
2016-10-14T07:01:34.227Z,7.92
2016-10-14T07:02:34.146Z,7.92
2016-10-14T07:03:34.146Z,7.89
2016-10-14T07:04:34.521Z,7.89
2016-10-14T07:05:34.169Z,8.04
2016-10-14T07:06:34.252Z,7.99
2016-10-14T07:07:34.238Z,7.98
2016-10-14T07:08:34.163Z,8.01
2016-10-14T07:09:34.197Z,8.09
2016-10-14T07:10:34.243Z,8.07
2016-10-14T07:11:34.247Z,8.13
2016-10-14T07:12:34.237Z,8.09
2016-10-14T07:13:36.042Z,8.22
2016-10-14T07:14:34.251Z,8.22
2016-10-14T07:15:34.229Z,8.34
2016-10-14T07:16:34.247Z,8.35
2016-10-14T07:17:34.258Z,8.46
2016-10-14T07:18:34.338Z,8.39
2016-10-14T07:19:34.324Z,8.5
2016-10-14T07:20:34.676Z,8.53
2016-10-14T07:21:34.309Z,8.69
2016-10-14T07:22:34.209Z,8.58
2016-10-14T07:23:34.260Z,8.72
2016-10-14T07:24:34.284Z,8.68
2016-10-14T07:25:34.431Z,8.68
2016-10-14T07:26:34.444Z,8.74
2016-10-14T07:27:34.433Z,8.83
2016-10-14T07:28:34.303Z,8.86
2016-10-14T07:29:34.321Z,8.9
2016-10-14T07:30:34.262Z,9.05
2016-10-14T07:31:34.259Z,9.21
2016-10-14T07:32:34.357Z,9.14
2016-10-14T07:33:34.263Z,9.21
2016-10-14T07:34:34.309Z,9.34
2016-10-14T07:35:34.329Z,9.32
2016-10-14T07:36:34.519Z,9.41
2016-10-14T07:37:34.294Z,9.45
2016-10-14T07:38:34.210Z,9.59
2016-10-14T07:39:34.276Z,9.75
2016-10-14T07:40:34.265Z,9.64
2016-10-14T07:41:34.355Z,9.59
2016-10-14T07:42:34.259Z,9.52
2016-10-14T07:43:34.265Z,9.57
2016-10-14T07:44:34.238Z,9.66
2016-10-14T07:45:34.355Z,9.81
2016-10-14T07:46:34.280Z,9.92
2016-10-14T07:47:34.341Z,10
2016-10-14T07:48:34.228Z,10.03
2016-10-14T07:49:34.329Z,9.95
2016-10-14T07:50:34.319Z,10.02
2016-10-14T07:51:34.285Z,10.15
2016-10-14T07:52:34.567Z,10.23
2016-10-14T07:53:34.367Z,10.47
2016-10-14T07:54:34.364Z,10.39
2016-10-14T07:55:34.362Z,10.26
2016-10-14T07:56:34.296Z,10.17
2016-10-14T07:57:36.303Z,10.1
2016-10-14T07:58:34.401Z,10.15
2016-10-14T07:59:34.333Z,10.14
2016-10-14T08:00:34.269Z,10.13
2016-10-14T08:01:34.314Z,10.05
2016-10-14T08:02:34.419Z,10.11
2016-10-14T08:03:34.356Z,10.32
2016-10-14T08:04:34.398Z,10.41
2016-10-14T08:05:34.349Z,10.38
2016-10-14T08:06:34.346Z,10.25
2016-10-14T08:07:36.568Z,10.35
2016-10-14T08:08:34.390Z,10.28
2016-10-14T08:09:34.341Z,10.36
2016-10-14T08:10:35.497Z,10.41
2016-10-14T08:11:34.344Z,10.46
2016-10-14T08:12:34.459Z,10.57
2016-10-14T08:13:34.423Z,10.41
2016-10-14T08:14:34.383Z,10.49
2016-10-14T08:15:34.488Z,10.61
2016-10-14T08:16:34.470Z,10.51
2016-10-14T08:17:34.349Z,10.39
2016-10-14T08:18:34.647Z,10.28
2016-10-14T08:19:34.410Z,10.44
2016-10-14T08:20:34.537Z,10.51
2016-10-14T08:21:34.404Z,10.57
2016-10-14T08:22:34.332Z,10.67
2016-10-14T08:23:36.084Z,10.97
2016-10-14T08:24:35.513Z,11.09
2016-10-14T08:25:34.398Z,11.12
2016-10-14T08:26:34.428Z,11.08
2016-10-14T08:27:34.430Z,11.1
2016-10-14T08:28:35.283Z,11.21
2016-10-14T08:29:35.556Z,11.13
2016-10-14T08:30:34.438Z,10.84
2016-10-14T08:31:34.359Z,10.61
2016-10-14T08:32:34.439Z,10.92
2016-10-14T08:33:34.496Z,10.79
2016-10-14T08:34:34.505Z,10.57
2016-10-14T08:35:34.579Z,10.83
2016-10-14T08:36:35.327Z,11.09
2016-10-14T08:37:34.426Z,11.43
2016-10-14T08:38:34.374Z,11.35
2016-10-14T08:39:34.506Z,11.12
2016-10-14T08:40:34.505Z,11.08
2016-10-14T08:41:34.514Z,11.12
2016-10-14T08:42:34.600Z,11.15
2016-10-14T08:43:34.496Z,10.77
2016-10-14T08:44:34.461Z,10.9
2016-10-14T08:45:34.565Z,10.94
2016-10-14T08:46:34.489Z,10.92
2016-10-14T08:47:34.538Z,10.98
2016-10-14T08:48:35.967Z,11.26
2016-10-14T08:49:34.536Z,11.06
2016-10-14T08:50:35.337Z,11.23
2016-10-14T08:51:34.621Z,11.2
2016-10-14T08:52:34.571Z,11.09
2016-10-14T08:53:34.499Z,11.51
2016-10-14T08:54:34.499Z,11.33
2016-10-14T08:55:34.514Z,11.49
2016-10-14T08:56:34.513Z,11.16
2016-10-14T08:57:34.584Z,11.34
2016-10-14T08:58:34.447Z,11.46
2016-10-14T08:59:34.528Z,11.43
2016-10-14T09:00:34.439Z,11.21
2016-10-14T09:01:34.553Z,11.33
2016-10-14T09:02:34.435Z,11.15
2016-10-14T09:03:34.492Z,11.24
2016-10-14T09:04:34.831Z,11.41
2016-10-14T09:05:36.264Z,11.45
2016-10-14T09:06:34.650Z,11.64
2016-10-14T09:07:34.497Z,11.94
2016-10-14T09:08:35.553Z,12.03
2016-10-14T09:09:34.532Z,12.08
2016-10-14T09:10:35.039Z,12.19
2016-10-14T09:11:34.572Z,12.34
2016-10-14T09:12:35.715Z,12.63
2016-10-14T09:13:34.490Z,12.53
2016-10-14T09:14:34.550Z,12.83
2016-10-14T09:15:34.698Z,12.8
2016-10-14T09:16:34.615Z,13.13
2016-10-14T09:17:35.322Z,13.11
2016-10-14T09:18:35.621Z,13.31
2016-10-14T09:19:35.422Z,13.68
2016-10-14T09:20:35.979Z,13.81
2016-10-14T09:21:34.540Z,14.2
2016-10-14T09:22:34.769Z,14.24
2016-10-14T09:23:34.614Z,13.76
2016-10-14T09:24:34.623Z,14.03
2016-10-14T09:25:34.597Z,14.3
2016-10-14T09:26:34.478Z,14.57
2016-10-14T09:27:34.607Z,14.6
2016-10-14T09:28:34.688Z,14.28
2016-10-14T09:29:34.511Z,13.97
2016-10-14T09:30:34.632Z,13.57
2016-10-14T09:31:34.589Z,13.91
2016-10-14T09:32:34.611Z,14.3
2016-10-14T09:33:34.634Z,14.24
2016-10-14T09:34:34.549Z,14.48
2016-10-14T09:35:34.639Z,14.98
2016-10-14T09:36:34.741Z,14.39
2016-10-14T09:37:34.589Z,14.57
2016-10-14T09:38:34.685Z,13.86
2016-10-14T09:39:34.674Z,13.36
2016-10-14T09:40:34.641Z,13.87
2016-10-14T09:41:34.690Z,13.99
2016-10-14T09:42:34.653Z,14.02
2016-10-14T09:43:35.464Z,14.57
2016-10-14T09:44:35.603Z,14.82
2016-10-14T09:45:34.643Z,15.27
2016-10-14T09:46:35.442Z,14.95
2016-10-14T09:47:34.662Z,13.73
2016-10-14T09:48:34.715Z,14.34
2016-10-14T09:49:34.613Z,14.28
2016-10-14T09:50:34.743Z,14.44
2016-10-14T09:51:35.363Z,13.09
2016-10-14T09:52:34.669Z,13.79
2016-10-14T09:53:34.657Z,14.51
2016-10-14T09:54:34.839Z,13.55
2016-10-14T09:55:34.678Z,13.39
2016-10-14T09:56:34.672Z,14.01
2016-10-14T09:57:34.766Z,14.49
2016-10-14T09:58:34.722Z,14.28
2016-10-14T09:59:34.872Z,14.49
2016-10-14T10:00:34.762Z,14.71
2016-10-14T10:01:34.680Z,14.74
2016-10-14T10:02:34.743Z,14.85
2016-10-14T10:03:34.761Z,14.85
2016-10-14T10:04:34.686Z,15.16
2016-10-14T10:05:34.754Z,15.37
2016-10-14T10:06:34.767Z,15.52
2016-10-14T10:07:34.807Z,15.34
2016-10-14T10:08:34.809Z,15.31
2016-10-14T10:09:34.729Z,15.26
2016-10-14T10:10:34.821Z,15.8
2016-10-14T10:11:34.786Z,15.78
2016-10-14T10:12:34.720Z,15.73
2016-10-14T10:13:34.797Z,15.7
2016-10-14T10:14:34.712Z,16.04
2016-10-14T10:15:35.077Z,15.78
2016-10-14T10:16:34.768Z,15.18
2016-10-14T10:17:34.626Z,15.31
2016-10-14T10:18:34.832Z,15.78
2016-10-14T10:19:34.662Z,15.19
2016-10-14T10:20:35.282Z,15.38
2016-10-14T10:21:34.803Z,16.06
2016-10-14T10:22:34.834Z,15.47
2016-10-14T10:23:34.746Z,14.21
2016-10-14T10:24:34.773Z,14.51
2016-10-14T10:25:34.799Z,15.19
2016-10-14T10:26:34.954Z,15.55
2016-10-14T10:27:34.820Z,16.14
2016-10-14T10:28:34.804Z,16.39
2016-10-14T10:29:34.864Z,15.35
2016-10-14T10:30:34.773Z,15.63
2016-10-14T10:31:34.952Z,15.91
2016-10-14T10:32:34.867Z,16.39
2016-10-14T10:33:34.824Z,16.8
2016-10-14T10:34:34.853Z,16.25
2016-10-14T10:35:34.938Z,16.39
2016-10-14T10:36:34.760Z,16.4
2016-10-14T10:37:34.906Z,16.3
2016-10-14T10:38:34.860Z,16.33
2016-10-14T10:39:34.837Z,16.59
2016-10-14T10:40:34.786Z,17.25
2016-10-14T10:41:34.823Z,16.1
2016-10-14T10:42:36.169Z,16.08
2016-10-14T10:43:34.810Z,15.91
2016-10-14T10:44:34.720Z,15.7
2016-10-14T10:45:34.792Z,15.59
2016-10-14T10:46:34.753Z,16.17
2016-10-14T10:47:35.133Z,16.94
2016-10-14T10:48:34.894Z,17.32
2016-10-14T10:49:34.821Z,17.55
2016-10-14T10:50:34.772Z,17.31
2016-10-14T10:51:34.868Z,16.95
2016-10-14T10:52:34.855Z,17.45
2016-10-14T10:53:34.802Z,18.02
2016-10-14T10:54:34.859Z,17.94
2016-10-14T10:55:35.020Z,17.79
2016-10-14T10:56:34.942Z,17.54
2016-10-14T10:57:34.956Z,16.59
2016-10-14T10:58:34.871Z,16.77
2016-10-14T10:59:34.897Z,17.15
2016-10-14T11:00:34.909Z,16.95
2016-10-14T11:01:34.841Z,16.85
2016-10-14T11:02:34.892Z,17.1
2016-10-14T11:03:35.183Z,16.87
2016-10-14T11:04:34.926Z,16.67
2016-10-14T11:05:35.067Z,17.38
2016-10-14T11:06:34.877Z,17.27
2016-10-14T11:07:34.974Z,17.02
2016-10-14T11:08:34.916Z,17.09
2016-10-14T11:09:34.906Z,16.42
2016-10-14T11:10:34.937Z,15.01
2016-10-14T11:11:34.882Z,14.26
2016-10-14T11:12:35.354Z,14.38
2016-10-14T11:13:35.626Z,14.39
2016-10-14T11:14:35.475Z,14.77
2016-10-14T11:15:35.286Z,15.38
2016-10-14T11:16:35.769Z,16.34
2016-10-14T11:17:35.558Z,16.3
2016-10-14T11:18:34.929Z,16.52
2016-10-14T11:19:34.991Z,16.47
2016-10-14T11:20:34.935Z,16.87
2016-10-14T11:21:34.972Z,16.67
2016-10-14T11:22:34.854Z,16.55
2016-10-14T11:23:34.953Z,16.22
2016-10-14T11:24:35.016Z,16.49
2016-10-14T11:25:35.104Z,17
2016-10-14T11:26:34.885Z,17.32
2016-10-14T11:27:35.030Z,16.94
2016-10-14T11:28:34.924Z,16.9
2016-10-14T11:29:34.928Z,17.12
2016-10-14T11:30:34.863Z,17.09
2016-10-14T11:31:34.913Z,16.92
2016-10-14T11:32:34.856Z,15.19
2016-10-14T11:33:35.029Z,14.71
2016-10-14T11:34:34.994Z,15.2
2016-10-14T11:35:35.024Z,15.1
2016-10-14T11:36:34.963Z,14.59
2016-10-14T11:37:34.985Z,15.31
2016-10-14T11:38:34.907Z,15.89
2016-10-14T11:39:34.972Z,16.1
2016-10-14T11:40:35.009Z,16.49
2016-10-14T11:41:34.961Z,16.55
2016-10-14T11:42:35.036Z,16.39
2016-10-14T11:43:34.883Z,16.54
2016-10-14T11:44:34.889Z,16.45
2016-10-14T11:45:34.903Z,16.45
2016-10-14T11:46:34.969Z,16.36
2016-10-14T11:47:34.942Z,16.42
2016-10-14T11:48:34.972Z,16
2016-10-14T11:49:35.094Z,16.07
2016-10-14T11:50:35.166Z,15.98
2016-10-14T11:51:35.132Z,16.14
2016-10-14T11:52:35.023Z,16.07
2016-10-14T11:53:35.129Z,15.81
2016-10-14T11:54:35.005Z,15.88
2016-10-14T11:55:35.196Z,15.78
2016-10-14T11:56:35.056Z,15.7
2016-10-14T11:57:35.757Z,15.81
2016-10-14T11:58:35.110Z,15.91
2016-10-14T11:59:35.020Z,15.45
2016-10-14T12:00:34.983Z,15.47
2016-10-14T12:01:34.980Z,15.27
2016-10-14T12:02:35.175Z,15.41
2016-10-14T12:03:35.144Z,15.44
2016-10-14T12:04:35.031Z,15.45
2016-10-14T12:05:35.110Z,15.35
2016-10-14T12:06:35.090Z,15.63
2016-10-14T12:07:35.251Z,15.7
2016-10-14T12:08:35.169Z,15.33
2016-10-14T12:09:34.982Z,15.45
2016-10-14T12:10:35.123Z,15.43
2016-10-14T12:11:35.035Z,15.56
2016-10-14T12:12:35.125Z,15.67
2016-10-14T12:13:35.056Z,15.71
2016-10-14T12:14:35.035Z,15.49
2016-10-14T12:15:35.156Z,15.58
2016-10-14T12:16:35.231Z,15.6
2016-10-14T12:17:35.054Z,15.65
2016-10-14T12:18:35.144Z,15.34
2016-10-14T12:19:35.132Z,15.35
2016-10-14T12:20:35.031Z,15.43
2016-10-14T12:21:35.167Z,15.3
2016-10-14T12:22:35.178Z,15.38
2016-10-14T12:23:35.265Z,15.07
2016-10-14T12:24:35.075Z,15.13
2016-10-14T12:25:35.188Z,15.16
2016-10-14T12:26:35.207Z,15.08
2016-10-14T12:27:35.081Z,15.04
2016-10-14T12:28:35.136Z,15.26
2016-10-14T12:29:35.208Z,15.05
2016-10-14T12:30:35.188Z,14.52
2016-10-14T12:31:35.192Z,14.66
2016-10-14T12:32:35.039Z,14.98
2016-10-14T12:33:35.205Z,15.34
2016-10-14T12:34:35.269Z,14.9
2016-10-14T12:35:35.118Z,14.77
2016-10-14T12:36:35.197Z,14.64
2016-10-14T12:37:35.108Z,14.59
2016-10-14T12:38:35.089Z,14.27
2016-10-14T12:39:35.343Z,14.36
2016-10-14T12:40:35.563Z,14.44
2016-10-14T12:41:35.208Z,14.6
2016-10-14T12:42:35.263Z,14.53
2016-10-14T12:43:35.186Z,14.42
2016-10-14T12:44:35.442Z,14.51
2016-10-14T12:45:35.165Z,14.52
2016-10-14T12:46:35.239Z,14.69
2016-10-14T12:47:35.245Z,14.53
2016-10-14T12:48:35.247Z,14.71
2016-10-14T12:49:35.106Z,14.93
2016-10-14T12:50:35.282Z,14.83
2016-10-14T12:51:35.230Z,14.71
2016-10-14T12:52:35.275Z,14.63
2016-10-14T12:53:35.123Z,14.31
2016-10-14T12:54:35.221Z,14.39
2016-10-14T12:55:35.428Z,14.39
2016-10-14T12:56:35.180Z,14.46
2016-10-14T12:57:35.242Z,14.26
2016-10-14T12:58:35.134Z,14.34
2016-10-14T12:59:35.232Z,13.73
2016-10-14T13:00:35.301Z,13.48
2016-10-14T13:01:35.150Z,13.75
2016-10-14T13:02:35.196Z,14.03
2016-10-14T13:03:35.407Z,14.19
2016-10-14T13:04:35.228Z,14.09
2016-10-14T13:05:35.294Z,14.26
2016-10-14T13:06:35.252Z,14.39
2016-10-14T13:07:35.196Z,14.44
2016-10-14T13:08:35.284Z,14.45
2016-10-14T13:09:35.287Z,14.39
2016-10-14T13:10:35.159Z,14.48